Latest Weather Observations for Scone Airport

IDN60801

Issued at 9:22 am EST Tuesday 16 July 2024 (issued every 10 minutes, with the page automatically refreshed every 10 minutes)

About weather observations | Map of weather stations | Latest weather observations for NSW | Other Formats
Station Details ID: 061363 Name: SCONE AIRPORT AWS Lat: -32.03 Lon: 150.83 Height: 221.4 m
Data from the previous 72 hours. | See also: Recent months at Scone Airport
Date/Time
EST
Temp
°C
App
Temp
°C
Dew
Point
°C
Rel
Hum
%
Delta-T
°C
Wind Press
QNH
hPa
Press
MSL
hPa
Rain since
9am
mm
Dir  Spd
km/h
Gust
km/h
Spd
kts
Gust
kts
16/09:00am 8.5 2.9 3.6 71 2.1 NNW 22 33 12 18 1007.4 1007.5 0.0
16/08:30am 8.3 3.3 3.8 73 2.0 NNW 19 24 10 13 1007.2 1007.3 0.0
16/08:00am 7.4 2.2 3.3 75 1.8 NNW 20 33 11 18 1007.2 1007.3 0.0
16/07:30am 7.4 2.1 3.1 74 1.8 NNW 20 32 11 17 1006.8 1007.0 0.0
16/07:00am 7.4 2.0 2.7 72 2.0 NNW 20 33 11 18 1006.6 1006.8 0.0
16/06:30am 7.4 2.0 2.3 70 2.1 N 20 32 11 17 1006.4 1006.6 0.0
16/06:00am 7.5 2.3 2.2 69 2.2 N 19 28 10 15 1006.3 1006.5 0.0
16/05:30am 7.4 3.0 2.9 73 1.9 NNW 15 24 8 13 1006.3 1006.5 0.0
16/05:00am 7.3 3.0 3.0 74 1.8 N 15 19 8 10 1006.0 1006.2 0.0
16/04:30am 7.6 2.9 3.1 73 1.9 N 17 28 9 15 1006.1 1006.3 0.0
16/04:00am 7.6 3.3 3.5 75 1.8 NNW 15 26 8 14 1006.5 1006.7 0.0
16/03:30am 7.6 3.4 3.6 76 1.7 N 15 22 8 12 1006.6 1006.8 0.0
16/03:00am 7.5 3.7 3.7 77 1.7 NNW 13 20 7 11 1006.9 1007.1 0.0
16/02:30am 7.7 3.1 3.7 76 1.7 NNW 17 28 9 15 1007.0 1007.2 0.0
16/02:00am 7.5 3.0 4.3 80 1.4 NW 17 24 9 13 1007.6 1007.7 0.0
16/01:30am 7.4 4.1 4.5 82 1.3 NW 11 19 6 10 1008.0 1008.1 0.0
16/01:00am 7.5 4.5 4.3 80 1.4 WNW 9 13 5 7 1008.0 1008.1 0.0
16/12:30am 7.6 4.3 4.4 80 1.4 NNW 11 17 6 9 1008.0 1008.1 0.0
16/12:00am 7.2 3.5 4.7 84 1.1 NW 13 17 7 9 1008.6 1008.8 0.0
 
Date/Time
EST
Temp
°C
App
Temp
°C
Dew
Point
°C
Rel
Hum
%
Delta-T
°C
Wind Press
QNH
hPa
Press
MSL
hPa
Rain since
9am
mm
Dir  Spd
km/h
Gust
km/h
Spd
kts
Gust
kts
15/11:30pm 7.5 3.8 4.3 80 1.4 NW 13 20 7 11 1008.9 1009.1 0.0
15/11:00pm 6.4 2.8 2.9 78 1.5 NW 11 15 6 8 1009.1 1009.3 0.0
15/10:30pm 7.7 3.0 3.2 73 1.9 NW 17 26 9 14 1009.3 1009.5 0.0
15/10:00pm 6.3 3.1 2.9 79 1.4 NW 9 15 5 8 1009.6 1009.8 0.0
15/09:30pm 5.2 1.9 2.6 83 1.1 NW 9 11 5 6 1009.9 1010.1 0.0
15/09:00pm 4.6 1.1 1.1 78 1.4 WNW 9 13 5 7 1009.9 1010.1 0.0
15/08:30pm 5.6 1.8 1.7 76 1.6 NNW 11 17 6 9 1009.8 1010.0 0.0
15/08:00pm 5.6 2.1 1.3 74 1.7 NW 9 15 5 8 1009.9 1010.1 0.0
15/07:30pm 6.9 2.8 2.2 72 2.0 NNW 13 19 7 10 1010.0 1010.2 0.0
15/07:00pm 5.4 2.2 1.0 73 1.8 WNW 7 9 4 5 1009.9 1010.1 0.0
15/06:30pm 6.7 3.3 1.8 71 2.0 N 9 13 5 7 1009.7 1009.9 0.0
15/06:00pm 7.5 4.5 2.0 68 2.3 NNW 7 11 4 6 1009.8 1010.0 0.0
15/05:30pm 7.8 4.0 1.9 66 2.5 NW 11 20 6 11 1009.5 1009.7 0.0
15/05:00pm 9.1 4.3 2.7 64 2.8 WNW 17 33 9 18 1009.4 1009.6 0.0
15/04:30pm 10.6 5.7 2.2 56 3.6 WNW 17 24 9 13 1009.1 1009.3 0.0
15/04:00pm 11.2 5.3 2.0 53 4.0 WNW 22 33 12 18 1009.1 1009.3 0.0
15/03:30pm 12.3 8.2 2.5 51 4.3 WNW 13 20 7 11 1009.2 1009.4 0.0
15/03:00pm 11.9 6.9 1.3 48 4.5 WNW 17 26 9 14 1009.2 1009.4 0.0
15/02:30pm 12.9 7.7 3.3 52 4.3 WNW 20 30 11 16 1009.2 1009.4 0.0
15/02:00pm 11.5 5.2 1.7 51 4.2 NW 24 39 13 21 1009.3 1009.5 0.0
15/01:30pm 10.9 4.7 2.0 54 3.8 NW 24 43 13 23 1009.6 1009.8 0.0
15/01:00pm 10.6 5.1 1.9 55 3.7 NW 20 33 11 18 1009.7 1009.9 0.0
15/12:30pm 10.5 5.0 1.9 55 3.7 W 20 32 11 17 1010.1 1010.3 0.0
15/12:00pm 10.7 6.4 3.0 59 3.4 NW 15 28 8 15 1010.4 1010.6 0.0
15/11:30am 9.9 4.4 1.8 57 3.4 WNW 20 35 11 19 1011.1 1011.3 0.0
15/11:00am 10.4 5.2 2.3 57 3.5 NW 19 32 10 17 1011.3 1011.5 0.0
15/10:30am 11.5 5.7 2.5 54 3.9 NW 22 35 12 19 1011.5 1011.7 0.0
15/10:00am 11.5 6.6 4.3 61 3.3 NW 19 26 10 14 1011.7 1011.9 0.0
15/09:30am 10.3 5.3 3.8 64 2.9 NW 19 28 10 15 1011.6 1011.8 0.0
15/09:00am 10.5 6.3 3.8 63 3.0 WNW 15 24 8 13 1011.5 1011.7 0.0
15/08:30am 8.9 4.6 3.3 68 2.4 NNW 15 22 8 12 1011.1 1011.3 0.0
15/08:00am 8.0 3.4 3.8 75 1.8 N 17 24 9 13 1011.0 1011.2 0.0
15/07:30am 6.7 2.8 3.5 80 1.4 N 13 22 7 12 1010.8 1011.0 0.0
15/07:00am 6.4 1.7 3.4 81 1.3 N 17 28 9 15 1010.7 1010.9 0.0
15/06:30am 6.2 1.9 3.2 81 1.3 N 15 17 8 9 1010.7 1010.9 0.0
15/06:00am 5.7 1.8 3.4 85 1.0 N 13 20 7 11 1010.5 1010.7 0.0
15/05:30am 5.1 1.5 3.1 87 0.8 N 11 15 6 8 1010.6 1010.8 0.0
15/05:00am 5.5 2.7 3.3 86 0.9 N 7 11 4 6 1010.7 1010.9 0.0
15/04:30am 6.3 3.7 4.0 85 1.0 NNW 7 13 4 7 1010.8 1011.0 0.0
15/04:00am 6.2 3.5 3.7 84 1.1 NW 7 15 4 8 1011.0 1011.2 0.0
15/03:30am 7.3 4.8 4.6 83 1.2 WNW 7 13 4 7 1011.2 1011.4 0.0
15/03:00am 7.9 5.5 5.2 83 1.2 W 7 11 4 6 1011.2 1011.4 0.0
15/02:30am 7.8 5.5 4.7 81 1.4 WNW 6 19 3 10 1011.3 1011.5 0.0
15/02:00am 8.4 5.6 5.2 80 1.5 NW 9 13 5 7 1011.3 1011.5 0.0
15/01:30am 8.6 5.7 4.8 77 1.7 NW 9 17 5 9 1011.3 1011.5 0.0
15/01:00am 9.1 5.6 5.3 77 1.7 NW 13 20 7 11 1011.5 1011.7 0.0
15/12:30am 9.1 5.9 4.9 75 1.9 NW 11 20 6 11 1011.7 1011.9 0.0
15/12:00am 9.0 6.5 5.0 76 1.8 NW 7 11 4 6 1011.9 1012.0 0.0
 
Date/Time
EST
Temp
°C
App
Temp
°C
Dew
Point
°C
Rel
Hum
%
Delta-T
°C
Wind Press
QNH
hPa
Press
MSL
hPa
Rain since
9am
mm
Dir  Spd
km/h
Gust
km/h
Spd
kts
Gust
kts
14/11:30pm 9.4 6.6 5.0 74 2.0 NNW 9 17 5 9 1012.1 1012.2 0.0
14/11:00pm 8.6 5.8 5.0 78 1.6 NW 9 11 5 6 1012.4 1012.6 0.0
14/10:30pm 8.9 6.1 5.3 78 1.6 NW 9 11 5 6 1012.5 1012.7 0.0
14/10:00pm 9.3 4.7 5.5 77 1.7 WNW 19 22 10 12 1012.7 1012.9 0.0
14/09:30pm 9.8 4.1 5.0 72 2.2 WNW 24 33 13 18 1012.8 1013.0 0.0
14/09:00pm 7.7 5.7 4.5 80 1.4 NW 4 7 2 4 1012.6 1012.8 0.0
14/08:30pm 7.7 5.2 4.7 81 1.3 WNW 7 11 4 6 1012.6 1012.8 0.0
14/08:00pm 8.6 5.5 3.6 71 2.2 N 9 11 5 6 1012.4 1012.6 0.0
14/07:30pm 8.8 5.8 4.0 72 2.1 NNW 9 13 5 7 1012.7 1012.9 0.0
14/07:00pm 9.2 6.2 4.0 70 2.3 NNW 9 11 5 6 1012.7 1012.9 0.0
14/06:30pm 9.5 6.2 4.3 70 2.3 WNW 11 17 6 9 1012.7 1012.9 0.0
14/06:00pm 9.9 4.8 4.1 67 2.6 WNW 20 35 11 19 1012.5 1012.7 0.0
14/05:30pm 9.8 5.3 4.4 69 2.4 WNW 17 24 9 13 1012.3 1012.5 0.0
14/05:00pm 9.7 5.2 4.3 69 2.4 WNW 17 20 9 11 1011.9 1012.0 0.0
14/04:30pm 11.1 6.2 4.1 62 3.2 NW 19 28 10 15 1011.6 1011.8 0.0
14/04:00pm 11.4 6.3 3.9 60 3.4 WNW 20 28 11 15 1011.6 1011.8 0.0
14/03:30pm 12.2 6.4 4.4 59 3.6 WNW 24 33 13 18 1011.6 1011.8 0.0
14/03:00pm 12.3 7.3 3.8 56 3.9 NW 19 30 10 16 1011.4 1011.6 0.0
14/02:30pm 12.2 6.7 4.2 58 3.7 WNW 22 32 12 17 1011.2 1011.4 0.0
14/02:00pm 12.3 6.8 4.0 57 3.8 WNW 22 32 12 17 1011.3 1011.5 0.0
14/01:30pm 12.1 5.4 3.9 57 3.7 WNW 28 39 15 21 1011.4 1011.6 0.0
14/01:00pm 13.5 8.0 5.7 59 3.7 W 24 32 13 17 1011.5 1011.7 0.0
14/12:30pm 13.0 7.3 4.7 57 3.9 WNW 24 32 13 17 1011.7 1011.9 0.0
14/12:00pm 13.9 9.5 5.0 55 4.2 WNW 17 26 9 14 1012.2 1012.3 0.0
14/11:30am 12.0 6.9 4.2 59 3.6 WNW 20 32 11 17 1013.0 1013.2 0.0
14/11:00am 12.6 7.5 4.1 56 3.9 WNW 20 26 11 14 1013.5 1013.7 0.0
14/10:30am 11.4 7.1 5.1 65 2.9 W 17 22 9 12 1013.8 1014.0 0.0
14/10:00am 12.1 7.3 5.5 64 3.1 WNW 20 32 11 17 1014.1 1014.3 0.0
14/09:30am 11.3 6.0 5.0 65 2.9 WNW 22 30 12 16 1014.2 1014.4 0.0
14/09:00am 10.8 6.4 4.9 67 2.7 NW 17 26 9 14 1014.2 1014.4 0.0
14/08:30am 10.2 6.1 4.6 68 2.5 NNW 15 22 8 12 1014.2 1014.4 0.0
14/08:00am 9.1 5.4 4.7 74 2.0 NW 13 19 7 10 1014.1 1014.3 0.0
14/07:30am 7.6 4.3 4.6 81 1.3 NW 11 19 6 10 1013.9 1014.1 0.0
14/07:00am 6.9 3.9 4.2 83 1.2 NW 9 13 5 7 1013.7 1013.9 0.0
14/06:30am 6.3 3.6 5.7 96 0.3 NW 9 20 5 11 1013.5 1013.7 0.0
14/06:00am 4.4 2.8 2.4 87 0.8 CALM 0 4 0 2 1013.3 1013.5 0.0
14/05:30am 6.5 3.8 3.5 81 1.3 NW 7 13 4 7 1013.0 1013.2 0.0
14/05:00am 7.1 4.1 3.9 80 1.4 NNW 9 15 5 8 1012.8 1013.0 0.0
14/04:30am 7.1 4.1 4.2 82 1.3 NW 9 13 5 7 1012.9 1013.1 0.0
14/04:00am 6.6 3.7 4.9 89 0.8 N 9 13 5 7 1013.0 1013.2 0.0
14/03:30am 5.0 2.3 2.9 86 0.9 ENE 6 9 3 5 1013.3 1013.5 0.0
14/03:00am 7.3 3.9 4.1 80 1.4 NNW 11 17 6 9 1013.3 1013.5 0.0
14/02:30am 7.0 3.6 4.1 82 1.3 NW 11 15 6 8 1013.4 1013.6 0.0
14/02:00am 7.1 3.8 4.8 85 1.0 NNW 11 22 6 12 1013.4 1013.6 0.0
14/01:30am 6.8 3.8 4.3 84 1.1 NNW 9 13 5 7 1013.6 1013.8 0.0
14/01:00am 7.1 4.1 3.9 80 1.4 NW 9 13 5 7 1013.5 1013.7 0.0
14/12:30am 6.8 3.8 3.9 82 1.3 NNW 9 15 5 8 1013.5 1013.7 0.0
14/12:00am 6.9 4.4 3.7 80 1.4 N 6 13 3 7 1013.6 1013.8 0.0
 
Date/Time
EST
Temp
°C
App
Temp
°C
Dew
Point
°C
Rel
Hum
%
Delta-T
°C
Wind Press
QNH
hPa
Press
MSL
hPa
Rain since
9am
mm
Dir  Spd
km/h
Gust
km/h
Spd
kts
Gust
kts
13/11:30pm 7.4 4.0 4.0 79 1.5 WNW 11 15 6 8 1013.7 1013.9 0.0
13/11:00pm 8.3 3.8 4.3 76 1.8 NW 17 22 9 12 1013.8 1014.0 0.0
13/10:30pm 8.5 5.3 5.1 79 1.5 NW 11 17 6 9 1013.9 1014.1 0.0
13/10:00pm 8.9 5.1 5.8 81 1.4 NW 15 26 8 14 1014.0 1014.2 0.0
13/09:30pm 9.6 4.2 6.3 80 1.5 WNW 24 33 13 18 1013.9 1014.1 0.0
13/09:00pm 10.0 3.9 6.7 80 1.6 W 28 39 15 21 1013.5 1013.7 0.0
13/08:30pm 10.2 4.5 6.9 80 1.6 W 26 35 14 19 1013.1 1013.3 0.0
13/08:00pm 10.9 4.5 7.0 77 1.9 W 30 37 16 20 1012.8 1013.0 0.0
13/07:30pm 11.2 7.0 7.5 78 1.8 WNW 19 35 10 19 1012.5 1012.7 0.0
13/07:00pm 12.1 8.7 7.6 74 2.2 NW 15 28 8 15 1012.2 1012.3 0.0
13/06:30pm 11.5 8.5 7.6 77 1.9 WNW 13 24 7 13 1012.0 1012.1 0.0
13/06:00pm 10.1 7.6 6.4 78 1.7 NNW 9 13 5 7 1011.5 1011.7 0.0
13/05:30pm 10.5 8.6 6.5 76 1.9 N 6 7 3 4 1011.3 1011.5 0.0
13/05:00pm 12.7 10.9 7.2 69 2.7 NNW 6 13 3 7 1011.2 1011.4 0.0
13/04:30pm 15.1 14.8 8.6 65 3.3 CALM 0 6 0 3 1011.0 1011.2 0.0
13/04:00pm 14.3 13.8 7.8 65 3.3 CALM 0 0 0 0 1010.9 1011.1 0.0
13/03:30pm 15.0 13.4 8.9 67 3.1 W 7 13 4 7 1011.1 1011.3 0.0
13/03:00pm 14.9 11.9 7.5 61 3.7 W 13 19 7 10 1011.0 1011.2 0.0
13/02:30pm 14.8 10.5 7.1 60 3.8 W 19 24 10 13 1011.0 1011.2 0.0
13/02:00pm 14.9 10.9 6.7 58 4.0 WNW 17 20 9 11 1011.0 1011.2 0.0
13/01:30pm 14.7 11.8 8.2 65 3.3 W 13 19 7 10 1011.2 1011.4 0.0
13/01:00pm 14.9 12.3 7.7 62 3.6 W 11 17 6 9 1011.2 1011.4 0.0
13/12:30pm 14.6 11.7 8.1 65 3.3 W 13 17 7 9 1011.5 1011.7 0.0
13/12:00pm 14.9 12.1 7.0 59 3.9 WSW 11 19 6 10 1011.9 1012.0 0.0
13/11:30am 15.6 13.6 8.6 63 3.6 SSW 9 15 5 8 1012.3 1012.5 0.0
13/11:00am 15.3 14.3 7.3 59 4.0 W 2 6 1 3 1012.8 1013.0 0.0
13/10:30am 13.9 12.2 7.7 66 3.1 NW 6 13 3 7 1012.9 1013.1 0.0
13/10:00am 12.6 9.9 7.5 71 2.5 WNW 11 15 6 8 1013.0 1013.2 0.0
13/09:30am 12.6 9.7 8.1 74 2.2 WNW 13 19 7 10 1013.0 1013.2 0.0

Other formats

Comma delimited format used in spreadsheet applications
http://www.bom.gov.au/fwo/IDN60801/IDN60801.95758.axf

JavaScript Object Notation format (JSON) in row-major order
http://www.bom.gov.au/fwo/IDN60801/IDN60801.95758.json

Data quality

Most of these data are generated automatically and are frequently updated. Quality checks on data are not normally performed. It is possible for incorrect values to appear. Refer to information at About Latest Weather Observations and please check the disclaimer before using these data.